Time;durP1;ratioP1;P1;durP2;ratioP2;P2;SDS_P1;SDS_P2;PMS_P1;PMS_P2;Temp;Humidity;BMP_temperature;BMP_pressure;BME280_temperature;BME280_humidity;BME280_pressure;Samples;Min_cycle;Max_cycle;Signal;HPM_P1;HPM_P2
2022/07/14 00:00:18;;;;;;;14.75;3.60;;;15.60;99.90;;;;;;5091140;28;20032;-84
2022/07/14 00:02:43;;;;;;;14.57;3.90;;;15.60;99.90;;;;;;5091984;28;20397;-84
2022/07/14 00:05:09;;;;;;;11.38;2.85;;;15.60;99.90;;;;;;5074020;28;20031;-84
2022/07/14 00:07:35;;;;;;;9.95;2.33;;;15.50;99.90;;;;;;5091343;28;20032;-84
2022/07/14 00:10:00;;;;;;;12.93;3.28;;;15.40;99.90;;;;;;5090972;28;20340;-84
2022/07/14 00:12:26;;;;;;;14.20;3.60;;;15.40;99.90;;;;;;5073034;28;20024;-84
2022/07/14 00:14:51;;;;;;;14.63;4.05;;;15.40;99.90;;;;;;5090723;28;20581;-84
2022/07/14 00:17:17;;;;;;;13.70;3.67;;;15.40;99.90;;;;;;5090236;28;20024;-84
2022/07/14 00:19:42;;;;;;;13.85;3.55;;;15.40;99.90;;;;;;5091637;28;20113;-84
2022/07/14 00:22:08;;;;;;;15.93;3.92;;;15.40;99.90;;;;;;5073756;28;20036;-84
2022/07/14 00:24:34;;;;;;;13.30;2.50;;;15.40;99.90;;;;;;5089893;28;20058;-84
2022/07/14 00:26:59;;;;;;;9.77;2.05;;;15.30;99.90;;;;;;5091494;28;20093;-84
2022/07/14 00:29:25;;;;;;;17.73;3.80;;;15.20;99.90;;;;;;5073793;28;20064;-84
2022/07/14 00:31:50;;;;;;;15.07;3.63;;;15.20;99.90;;;;;;5090728;28;20044;-84
2022/07/14 00:34:16;;;;;;;12.23;2.40;;;15.20;99.90;;;;;;5090773;28;20047;-84
2022/07/14 00:36:41;;;;;;;15.00;3.97;;;15.10;99.90;;;;;;5091885;28;20405;-84
2022/07/14 00:39:07;;;;;;;11.95;3.00;;;15.10;99.90;;;;;;5090853;28;20040;-84
2022/07/14 00:41:33;;;;;;;7.00;2.15;;;15.10;99.90;;;;;;5073616;28;20067;-84
2022/07/14 00:44:00;;;;;;;14.82;3.90;;;15.10;99.90;;;;;;5090737;28;20446;-84
2022/07/14 00:46:25;;;;;;;12.55;3.15;;;15.10;99.90;;;;;;5090718;28;20333;-84
2022/07/14 00:48:51;;;;;;;15.43;3.80;;;15.10;99.90;;;;;;5089252;28;20118;-84
2022/07/14 00:51:16;;;;;;;9.20;2.05;;;15.10;99.90;;;;;;5090774;28;20051;-84
2022/07/14 00:53:42;;;;;;;11.30;3.35;;;15.00;99.90;;;;;;5072620;28;20055;-84
2022/07/14 00:56:08;;;;;;;12.75;3.25;;;14.90;99.90;;;;;;5091836;28;20408;-84
2022/07/14 00:58:33;;;;;;;11.57;3.13;;;15.00;99.90;;;;;;5073969;28;20038;-84
2022/07/14 01:00:59;;;;;;;10.82;1.85;;;15.00;99.90;;;;;;5072503;28;20520;-84
2022/07/14 01:03:25;;;;;;;15.38;3.53;;;14.90;99.90;;;;;;5090610;28;20040;-84
2022/07/14 01:05:50;;;;;;;11.43;2.75;;;14.90;99.90;;;;;;5072839;28;20049;-83
2022/07/14 01:08:16;;;;;;;7.10;1.92;;;14.90;99.90;;;;;;5089740;28;20119;-83
2022/07/14 01:10:42;;;;;;;13.13;3.10;;;14.80;99.90;;;;;;5090321;28;20097;-83
2022/07/14 01:13:08;;;;;;;14.73;3.60;;;14.80;99.90;;;;;;5088974;28;20040;-83
2022/07/14 01:15:35;;;;;;;10.30;2.38;;;14.80;99.90;;;;;;5089828;28;20040;-83
2022/07/14 01:18:03;;;;;;;15.65;3.72;;;14.70;99.90;;;;;;5090395;28;20078;-83
2022/07/14 01:20:28;;;;;;;10.77;2.55;;;14.70;99.90;;;;;;5071660;28;20035;-83
2022/07/14 01:22:54;;;;;;;9.50;2.30;;;14.60;99.90;;;;;;5090040;28;20051;-83
2022/07/14 01:25:20;;;;;;;7.20;1.75;;;14.50;99.90;;;;;;5089413;28;20043;-83
2022/07/14 01:27:47;;;;;;;14.32;4.05;;;14.50;99.90;;;;;;5090637;28;20040;-83
2022/07/14 01:30:12;;;;;;;10.82;3.58;;;14.50;99.90;;;;;;5089244;28;20036;-83
2022/07/14 01:32:38;;;;;;;9.50;2.22;;;14.50;99.90;;;;;;5090072;28;20043;-83
2022/07/14 01:35:05;;;;;;;11.45;2.45;;;14.40;99.90;;;;;;5089470;28;20047;-83
2022/07/14 01:37:31;;;;;;;10.40;2.88;;;14.40;99.90;;;;;;5072165;28;20044;-83
2022/07/14 01:39:56;;;;;;;8.52;2.08;;;14.40;99.90;;;;;;5089783;28;20378;-83
2022/07/14 01:42:22;;;;;;;12.23;2.78;;;14.30;99.90;;;;;;5072328;28;20054;-83
2022/07/14 01:44:48;;;;;;;9.45;2.53;;;14.30;99.90;;;;;;5089399;28;20512;-84
2022/07/14 01:47:14;;;;;;;17.25;2.50;;;14.30;99.90;;;;;;5089470;28;20039;-83
2022/07/14 01:49:40;;;;;;;14.18;4.20;;;14.30;99.90;;;;;;5072159;28;20039;-83
2022/07/14 01:52:06;;;;;;;8.35;2.67;;;14.30;99.90;;;;;;5089642;28;20558;-84
2022/07/14 01:54:31;;;;;;;10.55;2.83;;;14.30;99.90;;;;;;5071346;28;20040;-83
2022/07/14 01:56:57;;;;;;;195.80;12.13;;;14.30;99.90;;;;;;5089445;28;20051;-84
2022/07/14 01:59:23;;;;;;;11.95;4.07;;;14.30;99.90;;;;;;5089167;28;20043;-84
2022/07/14 02:01:48;;;;;;;11.82;3.83;;;14.30;99.90;;;;;;5089201;28;20044;-83
2022/07/14 02:04:16;;;;;;;8.95;2.70;;;14.30;99.90;;;;;;5089391;28;20055;-83
2022/07/14 02:06:49;;;;;;;8.68;2.50;;;14.20;99.90;;;;;;5072032;28;20036;-83
2022/07/14 02:09:15;;;;;;;6.68;2.10;;;14.00;99.90;;;;;;5072868;28;20400;-83
2022/07/14 02:14:25;;;;;;;15.15;2.65;;;14.00;99.90;;;;;;5086052;28;20044;-83
2022/07/14 02:16:51;;;;;;;20.20;3.17;;;13.90;99.90;;;;;;5069358;28;20032;-83
2022/07/14 02:19:17;;;;;;;5.30;1.35;;;13.90;99.90;;;;;;5070947;28;20036;-82
2022/07/14 02:21:43;;;;;;;3.40;1.13;;;13.80;99.90;;;;;;5088892;28;20036;-82
2022/07/14 02:24:09;;;;;;;10.95;2.60;;;13.70;99.90;;;;;;5087622;28;20568;-83
2022/07/14 02:26:37;;;;;;;8.20;2.30;;;13.60;99.90;;;;;;5088989;28;20497;-83
2022/07/14 02:29:06;;;;;;;5.93;2.00;;;13.70;99.90;;;;;;5088965;28;20048;-83
2022/07/14 02:31:32;;;;;;;10.48;2.22;;;13.60;99.90;;;;;;5089319;28;20058;-83
2022/07/14 02:33:58;;;;;;;12.63;3.33;;;13.50;99.90;;;;;;5072391;28;20043;-83
2022/07/14 02:36:23;;;;;;;6.88;2.35;;;13.60;99.90;;;;;;5091906;28;20043;-83
2022/07/14 02:38:49;;;;;;;9.15;2.20;;;13.60;99.90;;;;;;5076407;28;20118;-83
2022/07/14 02:41:15;;;;;;;14.05;2.80;;;13.50;99.90;;;;;;5092634;28;20534;-84
2022/07/14 02:43:41;;;;;;;11.10;2.88;;;13.50;99.90;;;;;;5092642;28;20499;-84
2022/07/14 02:46:06;;;;;;;13.75;4.47;;;13.50;99.90;;;;;;5076054;28;20058;-83
2022/07/14 02:48:32;;;;;;;11.80;4.63;;;13.60;99.90;;;;;;5093047;28;20040;-83
2022/07/14 02:51:03;;;;;;;12.70;2.78;;;13.60;99.90;;;;;;5076274;28;20047;-83
2022/07/14 02:53:29;;;;;;;11.82;4.45;;;13.60;99.90;;;;;;5091822;28;20447;-84
2022/07/14 02:55:55;;;;;;;13.00;4.25;;;13.60;99.90;;;;;;5092813;28;20131;-83
2022/07/14 02:58:23;;;;;;;11.60;4.40;;;13.60;99.90;;;;;;5093215;28;20512;-83
2022/07/14 03:00:49;;;;;;;11.27;3.38;;;13.60;99.90;;;;;;5075009;28;20032;-83
2022/07/14 03:03:15;;;;;;;12.00;4.95;;;13.50;99.90;;;;;;5076227;28;20043;-84
2022/07/14 03:05:40;;;;;;;8.93;2.88;;;13.60;99.90;;;;;;5074984;28;20054;-84
2022/07/14 03:08:06;;;;;;;8.63;3.08;;;13.50;99.90;;;;;;5092648;28;20058;-84
2022/07/14 03:10:31;;;;;;;18.45;5.95;;;13.40;99.90;;;;;;5075152;28;20051;-83
2022/07/14 03:12:57;;;;;;;13.40;2.72;;;13.40;99.90;;;;;;5075082;28;20048;-83
2022/07/14 03:15:23;;;;;;;6.85;1.38;;;13.40;99.90;;;;;;5076547;28;20032;-83
2022/07/14 03:17:48;;;;;;;10.57;2.05;;;13.30;99.90;;;;;;5091801;28;20039;-83
2022/07/14 03:20:14;;;;;;;10.75;1.92;;;13.20;99.90;;;;;;5075126;28;20028;-83
2022/07/14 03:22:40;;;;;;;31.27;3.90;;;13.20;99.90;;;;;;5091854;28;20032;-83
2022/07/14 03:25:06;;;;;;;18.58;2.58;;;13.20;99.90;;;;;;5091619;28;20040;-83
2022/07/14 03:27:35;;;;;;;11.27;2.15;;;13.20;99.90;;;;;;5092972;28;20045;-83
2022/07/14 03:30:02;;;;;;;14.50;2.15;;;13.20;99.90;;;;;;5092401;28;20062;-83
2022/07/14 03:32:27;;;;;;;4.40;1.63;;;13.10;99.90;;;;;;5091594;28;20379;-83
2022/07/14 03:34:53;;;;;;;156.20;11.60;;;13.00;99.90;;;;;;5075131;28;20040;-83
2022/07/14 03:37:18;;;;;;;14.25;1.98;;;13.00;99.90;;;;;;5074207;28;20054;-83
2022/07/14 03:39:44;;;;;;;5.70;1.92;;;13.00;99.90;;;;;;5091628;28;20039;-83
2022/07/14 03:42:09;;;;;;;32.00;2.85;;;13.00;99.90;;;;;;5092329;28;20044;-83
2022/07/14 03:44:35;;;;;;;27.30;2.97;;;12.90;99.90;;;;;;5073570;28;20075;-83
2022/07/14 03:47:00;;;;;;;41.42;3.83;;;12.90;99.90;;;;;;5091749;28;20484;-83
2022/07/14 03:49:26;;;;;;;6.72;1.88;;;12.90;99.90;;;;;;5091422;28;20413;-84
2022/07/14 03:51:52;;;;;;;7.80;1.50;;;12.80;99.90;;;;;;5073600;28;20413;-84
2022/07/14 03:54:17;;;;;;;15.13;2.70;;;12.80;99.90;;;;;;5090699;28;20131;-84
2022/07/14 03:56:43;;;;;;;34.60;2.67;;;12.90;99.90;;;;;;5091319;28;20036;-84
2022/07/14 03:59:10;;;;;;;32.58;2.78;;;12.80;99.90;;;;;;5090841;28;20043;-84
2022/07/14 04:01:37;;;;;;;43.50;3.35;;;12.80;99.90;;;;;;5091742;28;20413;-83
2022/07/14 04:04:03;;;;;;;11.40;1.40;;;12.70;99.90;;;;;;5091209;28;20097;-84
2022/07/14 04:06:29;;;;;;;9.18;3.45;;;12.60;99.90;;;;;;5091317;28;20115;-83
2022/07/14 04:08:55;;;;;;;8.50;2.20;;;12.70;99.90;;;;;;5091632;28;20096;-83
2022/07/14 04:11:20;;;;;;;4.95;1.70;;;12.80;99.90;;;;;;5090462;28;20036;-83
2022/07/14 04:13:46;;;;;;;16.30;1.70;;;12.70;99.90;;;;;;5074330;28;20040;-83
2022/07/14 04:16:12;;;;;;;34.25;3.63;;;12.70;99.90;;;;;;5074908;28;20078;-83
2022/07/14 04:18:37;;;;;;;5.20;1.73;;;12.70;99.90;;;;;;5089880;28;20040;-83
2022/07/14 04:21:03;;;;;;;4.43;1.30;;;12.70;99.90;;;;;;5090875;28;20036;-83
2022/07/14 04:23:30;;;;;;;5.95;1.95;;;12.70;99.90;;;;;;5073690;28;20044;-83
2022/07/14 04:25:56;;;;;;;3.63;1.30;;;12.70;99.90;;;;;;5091437;28;20406;-83
2022/07/14 04:28:21;;;;;;;7.40;2.35;;;12.80;99.90;;;;;;5074642;28;20481;-83
2022/07/14 04:30:47;;;;;;;4.95;1.80;;;12.80;99.90;;;;;;5091154;28;20044;-83
2022/07/14 04:33:12;;;;;;;4.53;1.50;;;12.80;99.90;;;;;;5090991;28;20040;-83
2022/07/14 04:35:38;;;;;;;6.70;2.75;;;12.80;99.90;;;;;;5090583;28;20378;-83
2022/07/14 04:38:04;;;;;;;10.13;2.65;;;12.80;99.90;;;;;;5073249;28;20043;-83
2022/07/14 04:40:29;;;;;;;9.00;2.55;;;12.80;99.90;;;;;;5090961;28;20066;-83
2022/07/14 04:42:55;;;;;;;6.60;2.67;;;12.80;99.90;;;;;;5089813;28;20062;-83
2022/07/14 04:45:22;;;;;;;8.30;2.40;;;12.80;99.90;;;;;;5090402;28;20035;-83
2022/07/14 04:47:51;;;;;;;7.18;2.53;;;12.80;99.90;;;;;;5090990;28;20085;-83
2022/07/14 04:53:01;;;;;;;5.88;2.20;;;12.90;99.90;;;;;;5090786;28;20040;-83
2022/07/14 04:55:26;;;;;;;6.95;2.28;;;12.90;99.90;;;;;;5089113;28;20489;-83
2022/07/14 04:57:52;;;;;;;12.10;4.20;;;12.90;99.90;;;;;;5073814;28;20032;-83
2022/07/14 05:00:18;;;;;;;9.45;2.90;;;13.00;99.90;;;;;;5072713;28;20040;-83
2022/07/14 05:02:44;;;;;;;10.85;4.72;;;13.10;99.90;;;;;;5090742;28;20032;-83
2022/07/14 05:05:10;;;;;;;8.95;3.47;;;13.20;99.90;;;;;;5089727;28;20044;-83
2022/07/14 05:07:36;;;;;;;11.43;3.47;;;13.20;99.90;;;;;;5074048;28;20039;-83
2022/07/14 05:10:03;;;;;;;10.20;4.88;;;13.20;99.90;;;;;;5090734;28;20471;-83
2022/07/14 05:12:29;;;;;;;8.52;2.53;;;13.20;99.90;;;;;;5089644;28;20107;-83
2022/07/14 05:14:55;;;;;;;9.93;3.22;;;13.30;99.90;;;;;;5090673;28;20524;-84
2022/07/14 05:17:20;;;;;;;11.85;3.55;;;13.30;99.90;;;;;;5089165;28;20043;-83
2022/07/14 05:19:46;;;;;;;12.63;4.90;;;13.30;99.90;;;;;;5090373;28;20036;-83
2022/07/14 05:22:12;;;;;;;12.98;3.60;;;13.40;99.90;;;;;;5090671;28;20047;-83
2022/07/14 05:24:37;;;;;;;12.68;5.45;;;13.40;99.90;;;;;;5072409;28;20040;-83
2022/07/14 05:27:03;;;;;;;11.32;3.15;;;13.50;99.90;;;;;;5090594;28;20130;-84
2022/07/14 05:29:29;;;;;;;8.45;2.95;;;13.60;99.90;;;;;;5089336;28;20489;-84
2022/07/14 05:31:57;;;;;;;12.65;4.57;;;13.60;99.90;;;;;;5072768;28;20039;-84
2022/07/14 05:34:23;;;;;;;12.02;4.65;;;13.70;99.90;;;;;;5090137;28;20066;-84
2022/07/14 05:36:48;;;;;;;9.13;2.85;;;13.80;99.90;;;;;;5072481;28;20599;-84
2022/07/14 05:39:14;;;;;;;10.38;4.38;;;13.90;99.90;;;;;;5073123;28;20038;-84
2022/07/14 05:41:39;;;;;;;9.93;3.90;;;14.00;99.90;;;;;;5089408;28;20047;-84
2022/07/14 05:44:05;;;;;;;12.70;3.28;;;14.00;99.90;;;;;;5089346;28;20097;-84
2022/07/14 05:46:30;;;;;;;13.23;4.90;;;14.00;99.90;;;;;;5089664;28;20054;-84
2022/07/14 05:48:56;;;;;;;14.10;4.13;;;14.10;99.90;;;;;;5071932;28;20130;-84
2022/07/14 05:51:22;;;;;;;12.85;4.80;;;14.20;99.90;;;;;;5089962;28;20453;-84
2022/07/14 05:53:49;;;;;;;10.57;3.75;;;14.30;99.90;;;;;;5072387;28;20048;-84
2022/07/14 05:56:18;;;;;;;13.55;4.80;;;14.30;99.90;;;;;;5088219;28;20119;-84
2022/07/14 05:58:45;;;;;;;13.43;4.72;;;14.40;99.90;;;;;;5090088;28;20044;-84
2022/07/14 06:01:11;;;;;;;9.32;3.83;;;14.50;99.90;;;;;;5088923;28;20551;-84
2022/07/14 06:03:37;;;;;;;11.25;4.72;;;14.50;99.90;;;;;;5089316;28;20656;-84
2022/07/14 06:06:04;;;;;;;12.48;4.25;;;14.70;99.90;;;;;;5072823;28;20083;-84
2022/07/14 06:08:30;;;;;;;11.77;3.78;;;14.70;99.90;;;;;;5088934;28;20509;-84
2022/07/14 06:10:56;;;;;;;11.95;4.35;;;14.70;99.90;;;;;;5089378;28;20044;-84
2022/07/14 06:13:27;;;;;;;10.10;2.95;;;14.90;99.90;;;;;;5089217;28;20031;-85
2022/07/14 06:15:52;;;;;;;9.35;2.67;;;15.00;99.90;;;;;;5072424;28;20059;-84
2022/07/14 06:18:18;;;;;;;11.18;3.47;;;15.00;99.90;;;;;;5089318;28;20604;-84
2022/07/14 06:20:44;;;;;;;12.27;3.45;;;15.20;99.90;;;;;;5071241;28;20392;-84
2022/07/14 06:23:10;;;;;;;11.55;3.35;;;15.20;99.90;;;;;;5089737;28;20039;-84
2022/07/14 06:25:39;;;;;;;11.20;3.50;;;15.30;99.90;;;;;;5090068;28;20143;-85
2022/07/14 06:28:05;;;;;;;10.75;3.60;;;15.40;99.90;;;;;;5088642;28;20040;-84
2022/07/14 06:30:31;;;;;;;14.60;3.40;;;15.50;99.90;;;;;;5089314;28;20040;-84
2022/07/14 06:32:57;;;;;;;12.07;2.97;;;15.60;99.90;;;;;;5088772;28;20043;-84
2022/07/14 06:35:23;;;;;;;9.95;2.97;;;15.70;99.90;;;;;;5072196;28;20093;-84
2022/07/14 06:37:52;;;;;;;13.32;2.92;;;15.70;99.90;;;;;;5085207;28;20028;-84
2022/07/14 06:40:17;;;;;;;13.48;2.47;;;15.80;99.90;;;;;;5062415;28;20072;-85
2022/07/14 06:42:44;;;;;;;12.73;2.80;;;15.90;99.90;;;;;;5077554;28;20508;-84
2022/07/14 06:45:10;;;;;;;13.75;2.83;;;15.90;99.90;;;;;;5064466;28;20108;-84
2022/07/14 06:47:36;;;;;;;12.50;3.08;;;16.00;99.90;;;;;;5078341;28;20401;-84
2022/07/14 06:50:05;;;;;;;12.23;2.80;;;16.10;99.90;;;;;;5064363;28;20036;-84
2022/07/14 06:52:31;;;;;;;11.43;2.83;;;16.10;99.90;;;;;;5076926;28;20032;-85
2022/07/14 06:55:01;;;;;;;13.45;2.65;;;16.20;99.90;;;;;;5054756;28;20040;-85
2022/07/14 06:57:27;;;;;;;11.38;2.63;;;16.40;99.90;;;;;;5076781;28;20409;-85
2022/07/14 06:59:53;;;;;;;10.50;2.30;;;16.30;99.90;;;;;;5088081;28;20040;-85
2022/07/14 07:02:19;;;;;;;11.80;2.50;;;16.40;99.90;;;;;;5088126;28;20177;-85
2022/07/14 07:04:46;;;;;;;12.07;3.15;;;16.40;99.90;;;;;;5086179;28;20166;-85
2022/07/14 07:07:13;;;;;;;9.60;2.40;;;16.50;99.90;;;;;;5087620;28;20570;-84
2022/07/14 07:09:38;;;;;;;9.00;2.13;;;16.50;99.90;;;;;;5087566;28;20045;-85
2022/07/14 07:12:04;;;;;;;13.55;2.72;;;16.60;99.90;;;;;;5088862;28;20473;-85
2022/07/14 07:14:30;;;;;;;13.75;1.95;;;16.60;99.90;;;;;;5071662;28;20042;-84
2022/07/14 07:16:56;;;;;;;10.13;2.33;;;16.60;99.90;;;;;;5088395;28;20036;-85
2022/07/14 07:19:22;;;;;;;10.90;1.98;;;16.70;99.90;;;;;;5088204;28;20105;-85
2022/07/14 07:21:47;;;;;;;11.57;2.30;;;16.80;99.90;;;;;;5088395;28;20120;-85
2022/07/14 07:24:13;;;;;;;9.27;1.73;;;16.90;99.90;;;;;;5074585;28;20066;-85
2022/07/14 07:26:40;;;;;;;10.07;1.90;;;16.90;99.90;;;;;;5091687;28;20040;-85
2022/07/14 07:29:06;;;;;;;10.10;1.80;;;16.90;99.90;;;;;;5092133;28;20051;-85
2022/07/14 07:31:33;;;;;;;8.85;1.92;;;17.00;99.90;;;;;;5075758;28;20044;-85
2022/07/14 07:34:00;;;;;;;9.10;1.85;;;17.10;99.90;;;;;;5074789;28;20072;-85
2022/07/14 07:36:26;;;;;;;9.32;1.83;;;17.20;99.90;;;;;;5089963;28;20100;-84
2022/07/14 07:38:52;;;;;;;8.75;2.03;;;17.20;99.90;;;;;;5068439;28;20032;-83
2022/07/14 07:41:18;;;;;;;11.60;2.38;;;17.20;99.90;;;;;;5085755;28;20051;-85
2022/07/14 07:43:44;;;;;;;12.73;2.15;;;17.30;99.90;;;;;;5086892;28;20044;-85
2022/07/14 07:46:09;;;;;;;8.80;2.03;;;17.30;99.90;;;;;;5090642;28;20035;-84
2022/07/14 07:48:35;;;;;;;8.93;1.70;;;17.30;99.90;;;;;;5074573;28;20548;-84
2022/07/14 07:51:01;;;;;;;7.57;1.50;;;17.30;99.90;;;;;;5091336;28;20495;-84
2022/07/14 07:53:27;;;;;;;7.93;1.48;;;17.40;99.90;;;;;;5091591;28;20126;-84
2022/07/14 07:55:53;;;;;;;8.68;1.70;;;17.50;99.90;;;;;;5091350;28;20119;-85
2022/07/14 07:58:20;;;;;;;9.90;1.88;;;17.60;99.90;;;;;;5091315;28;20032;-84
2022/07/14 08:00:45;;;;;;;15.93;2.90;;;17.70;99.90;;;;;;5074779;28;20032;-84
2022/07/14 08:03:11;;;;;;;10.68;1.83;;;17.80;99.90;;;;;;5090407;28;20382;-85
2022/07/14 08:05:36;;;;;;;9.57;1.92;;;17.80;99.90;;;;;;5091846;28;20032;-85
2022/07/14 08:08:02;;;;;;;8.38;1.75;;;17.80;99.90;;;;;;5071632;28;20478;-84
2022/07/14 08:10:28;;;;;;;9.27;2.20;;;17.80;99.90;;;;;;5073836;28;20517;-84
2022/07/14 08:12:54;;;;;;;9.98;1.83;;;17.80;99.90;;;;;;5074578;28;20039;-84
2022/07/14 08:15:20;;;;;;;7.72;1.38;;;17.90;99.90;;;;;;5074115;28;20032;-84
2022/07/14 08:17:45;;;;;;;7.47;1.60;;;18.00;99.90;;;;;;5092479;28;20044;-85
2022/07/14 08:20:12;;;;;;;7.80;1.60;;;18.10;99.90;;;;;;5074621;28;20123;-84
2022/07/14 08:22:38;;;;;;;7.38;1.80;;;18.20;99.90;;;;;;5073945;28;20025;-84
2022/07/14 08:25:06;;;;;;;10.05;2.67;;;18.40;99.90;;;;;;5092716;28;20451;-85
2022/07/14 08:27:32;;;;;;;7.20;1.48;;;18.50;99.90;;;;;;5073773;28;20085;-84
2022/07/14 08:29:58;;;;;;;8.20;2.75;;;18.70;99.90;;;;;;5074617;28;20079;-85
2022/07/14 08:32:46;;;;;;;7.75;1.25;;;18.80;99.90;;;;;;5090627;28;20083;-84
2022/07/14 08:35:14;;;;;;;6.82;1.40;;;19.00;99.90;;;;;;5073393;28;20115;-85
2022/07/14 08:37:40;;;;;;;7.80;1.65;;;19.00;99.90;;;;;;5090895;28;20566;-84
2022/07/14 08:40:08;;;;;;;8.75;1.50;;;19.00;99.90;;;;;;5073361;28;20036;-85
2022/07/14 08:42:35;;;;;;;10.02;3.95;;;19.10;99.90;;;;;;5073537;28;20130;-85
2022/07/14 08:45:07;;;;;;;8.60;1.70;;;19.20;99.90;;;;;;5073882;28;20043;-85
2022/07/14 08:47:34;;;;;;;8.55;2.40;;;19.30;99.90;;;;;;5073325;28;20044;-85
2022/07/14 08:50:02;;;;;;;8.25;1.88;;;19.40;99.90;;;;;;5090277;28;20040;-85
2022/07/14 08:52:27;;;;;;;8.77;1.75;;;19.50;99.90;;;;;;5090517;28;20040;-85
2022/07/14 08:54:54;;;;;;;4.72;1.10;;;19.50;99.90;;;;;;5073074;28;20048;-85
2022/07/14 08:57:20;;;;;;;5.57;1.27;;;19.60;99.90;;;;;;5090276;28;20500;-85
2022/07/14 08:59:46;;;;;;;5.75;1.13;;;19.70;99.90;;;;;;5088946;28;20054;-85
2022/07/14 09:02:11;;;;;;;5.97;1.30;;;19.60;99.90;;;;;;5072908;28;20064;-85
2022/07/14 09:04:37;;;;;;;6.93;1.30;;;19.70;99.90;;;;;;5107187;28;20447;-85
2022/07/14 09:07:02;;;;;;;7.97;1.40;;;19.70;99.90;;;;;;5073288;28;20127;-85
2022/07/14 09:09:31;;;;;;;5.80;1.13;;;19.80;99.90;;;;;;5107491;28;20051;-85
2022/07/14 09:12:06;;;;;;;7.72;1.27;;;19.90;99.90;;;;;;5089901;28;20048;-85
2022/07/14 09:17:48;;;;;;;6.53;1.38;;;20.00;99.90;;;;;;5085402;28;20127;-85
2022/07/14 09:20:13;;;;;;;8.85;1.73;;;20.00;99.90;;;;;;5073075;28;20119;-85
2022/07/14 09:22:42;;;;;;;10.63;1.55;;;20.10;99.90;;;;;;5090286;28;20119;-85
2022/07/14 09:25:10;;;;;;;7.75;1.80;;;20.10;99.90;;;;;;5073309;28;20517;-85
2022/07/14 09:27:38;;;;;;;6.25;1.15;;;20.20;99.90;;;;;;5089486;28;20044;-85
2022/07/14 09:30:05;;;;;;;7.70;1.50;;;20.10;99.90;;;;;;5089908;28;20044;-85
2022/07/14 09:32:52;;;;;;;6.30;1.27;;;20.00;99.90;;;;;;5089615;28;20398;-86
2022/07/14 09:35:23;;;;;;;6.38;1.40;;;20.10;99.90;;;;;;5090551;28;20268;-86
2022/07/14 09:37:50;;;;;;;5.80;1.33;;;20.20;99.90;;;;;;5089180;28;20040;-86
2022/07/14 09:40:25;;;;;;;4.97;1.00;;;20.20;99.90;;;;;;5088928;28;20048;-85
2022/07/14 09:43:03;;;;;;;6.30;1.15;;;20.40;99.90;;;;;;5072823;28;20436;-85
2022/07/14 09:45:34;;;;;;;5.28;1.00;;;20.30;99.20;;;;;;5089685;28;20490;-86
2022/07/14 09:48:10;;;;;;;5.45;1.08;;;20.20;99.40;;;;;;5078021;28;20068;-86
2022/07/14 09:50:43;;;;;;;5.85;1.90;;;20.20;99.90;;;;;;5089711;28;20516;-86
2022/07/14 09:53:14;;;;;;;6.07;1.40;;;20.30;99.90;;;;;;5090313;28;20461;-86
2022/07/14 09:55:55;;;;;;;5.75;1.50;;;20.40;99.90;;;;;;5089342;28;20538;-86
2022/07/14 09:58:22;;;;;;;5.00;1.13;;;20.50;99.30;;;;;;5089487;28;20032;-86
2022/07/14 10:01:15;;;;;;;6.57;1.17;;;20.50;99.00;;;;;;5089580;28;20067;-86
2022/07/14 10:03:42;;;;;;;7.45;1.67;;;20.60;99.50;;;;;;5068468;28;20055;-85
2022/07/14 10:06:09;;;;;;;6.70;2.13;;;20.60;99.50;;;;;;5089360;28;20044;-86
2022/07/14 10:08:39;;;;;;;7.18;1.58;;;20.80;99.40;;;;;;5089374;28;20050;-85
2022/07/14 10:11:05;;;;;;;5.32;1.10;;;20.80;99.10;;;;;;5089101;28;20440;-85
2022/07/14 10:13:31;;;;;;;5.65;1.08;;;20.90;98.70;;;;;;5072429;28;20089;-86
2022/07/14 10:15:57;;;;;;;5.95;1.20;;;21.00;99.50;;;;;;5089680;28;20058;-85
2022/07/14 10:18:25;;;;;;;6.68;1.27;;;21.00;99.50;;;;;;5089475;28;20085;-86
2022/07/14 10:20:56;;;;;;;6.88;1.27;;;21.00;99.30;;;;;;5087937;28;20040;-85
2022/07/14 10:23:23;;;;;;;6.00;1.03;;;21.10;99.90;;;;;;5089589;28;20043;-85
2022/07/14 10:25:52;;;;;;;5.85;1.05;;;21.10;99.50;;;;;;5088843;28;20289;-85
2022/07/14 10:28:19;;;;;;;9.82;1.40;;;21.10;99.00;;;;;;5090854;28;20101;-85
2022/07/14 10:31:15;;;;;;;7.75;1.60;;;21.00;99.60;;;;;;5089362;28;20047;-85
2022/07/14 10:34:14;;;;;;;5.05;1.10;;;21.00;99.80;;;;;;5071725;28;20043;-85
2022/07/14 10:36:47;;;;;;;7.45;1.17;;;21.00;99.90;;;;;;5089110;28;20115;-86
2022/07/14 10:39:33;;;;;;;5.57;1.88;;;21.00;99.90;;;;;;5088394;28;20070;-85
2022/07/14 10:42:21;;;;;;;6.13;1.30;;;21.10;99.90;;;;;;5088478;28;20040;-85
2022/07/14 10:44:49;;;;;;;7.22;1.55;;;21.10;99.10;;;;;;5071813;28;20047;-85
2022/07/14 10:47:16;;;;;;;5.15;1.38;;;21.20;98.80;;;;;;5089531;28;20444;-86
2022/07/14 10:50:12;;;;;;;6.32;1.20;;;21.20;98.20;;;;;;5089097;28;20516;-85
2022/07/14 10:53:03;;;;;;;5.78;1.00;;;21.30;96.90;;;;;;5072507;28;20029;-85
2022/07/14 10:55:29;;;;;;;5.95;1.30;;;21.20;94.20;;;;;;5073407;28;20071;-85
2022/07/14 10:58:04;;;;;;;6.80;1.10;;;21.10;96.30;;;;;;5092461;28;20086;-85
2022/07/14 11:00:47;;;;;;;6.25;1.00;;;21.00;97.90;;;;;;5092918;28;20119;-85
2022/07/14 11:03:22;;;;;;;6.93;1.27;;;21.00;98.50;;;;;;5092409;28;20039;-85
2022/07/14 11:06:03;;;;;;;4.85;1.00;;;21.00;99.60;;;;;;5092922;28;20118;-85
2022/07/14 11:08:30;;;;;;;6.68;1.15;;;20.90;98.40;;;;;;5092910;28;20044;-86
2022/07/14 11:10:57;;;;;;;6.63;1.10;;;20.90;98.00;;;;;;5092177;28;20043;-85
2022/07/14 11:13:23;;;;;;;6.55;1.08;;;20.90;99.20;;;;;;5075956;28;20481;-85
2022/07/14 11:15:53;;;;;;;7.60;1.13;;;20.90;99.90;;;;;;5092210;28;20115;-85
2022/07/14 11:18:18;;;;;;;4.95;0.93;;;20.80;96.40;;;;;;5063206;28;20102;-85
2022/07/14 11:20:51;;;;;;;5.20;1.08;;;20.70;94.30;;;;;;5065374;28;20040;-85
2022/07/14 11:23:17;;;;;;;;;;;20.70;97.10;;;;;;5089500;28;20052;-85
2022/07/14 11:25:43;;;;;;;6.75;1.25;;;20.60;98.90;;;;;;5076163;28;19916;-85
2022/07/14 11:28:31;;;;;;;7.25;1.27;;;20.50;97.50;;;;;;5108597;28;20043;-85
2022/07/14 11:31:16;;;;;;;9.15;1.20;;;20.60;98.60;;;;;;5075513;28;20040;-85
2022/07/14 11:36:33;;;;;;;7.55;1.25;;;20.70;99.90;;;;;;5092479;28;20040;-85
2022/07/14 11:39:17;;;;;;;7.25;1.48;;;20.90;99.90;;;;;;5091551;28;20055;-85
2022/07/14 11:41:45;;;;;;;7.38;1.00;;;20.90;99.90;;;;;;5065535;28;20040;-85
2022/07/14 11:44:40;;;;;;;7.30;1.30;;;21.00;99.90;;;;;;5104680;28;20036;-85
2022/07/14 11:47:17;;;;;;;5.53;1.23;;;21.10;99.90;;;;;;5083319;28;20052;-85
2022/07/14 11:49:51;;;;;;;7.65;1.35;;;21.10;98.20;;;;;;5092435;28;20397;-84
2022/07/14 11:52:33;;;;;;;7.15;1.35;;;21.20;99.20;;;;;;5073145;28;20504;-85
2022/07/14 11:55:00;;;;;;;19.00;4.13;;;21.20;99.90;;;;;;5081310;28;20044;-85
2022/07/14 11:57:27;;;;;;;9.65;1.60;;;21.30;98.50;;;;;;5070106;28;20489;-85
2022/07/14 12:00:00;;;;;;;6.32;1.20;;;21.40;96.90;;;;;;5092228;28;20511;-85
2022/07/14 12:02:26;;;;;;;5.70;1.10;;;21.40;99.80;;;;;;5090535;28;20032;-85
2022/07/14 12:04:56;;;;;;;3.53;0.90;;;21.50;99.90;;;;;;5071674;28;20029;-86
2022/07/14 12:07:49;;;;;;;6.85;1.10;;;21.40;97.00;;;;;;5077636;28;20127;-85
2022/07/14 12:10:33;;;;;;;4.53;0.90;;;21.30;96.20;;;;;;5085460;28;20406;-85
2022/07/14 12:12:58;;;;;;;5.03;1.00;;;21.20;98.30;;;;;;5055900;28;20049;-85
2022/07/14 12:15:25;;;;;;;6.03;1.17;;;21.10;99.70;;;;;;5091500;28;20031;-85
2022/07/14 12:17:54;;;;;;;6.93;1.25;;;21.10;98.90;;;;;;5075000;28;20169;-85
2022/07/14 12:20:21;;;;;;;4.97;1.00;;;21.20;99.00;;;;;;5089578;28;20119;-85
2022/07/14 12:22:54;;;;;;;4.70;1.10;;;21.30;99.30;;;;;;5091634;28;20043;-85
2022/07/14 12:25:25;;;;;;;6.53;1.40;;;21.60;98.70;;;;;;5092550;28;20069;-85
2022/07/14 12:27:51;;;;;;;5.28;1.25;;;21.80;99.20;;;;;;5091264;28;20062;-85
2022/07/14 12:30:17;;;;;;;7.10;1.13;;;22.00;98.70;;;;;;5074217;28;20401;-85
2022/07/14 12:32:42;;;;;;;5.78;1.05;;;22.00;97.70;;;;;;5073622;28;20062;-85
2022/07/14 12:35:08;;;;;;;7.00;1.40;;;22.10;99.40;;;;;;5090984;28;20040;-85
2022/07/14 12:37:34;;;;;;;5.35;1.10;;;22.20;97.10;;;;;;5073310;28;20143;-85
2022/07/14 12:40:00;;;;;;;5.07;1.20;;;22.40;98.00;;;;;;5084236;28;20042;-85
2022/07/14 12:42:26;;;;;;;4.00;0.88;;;22.60;97.00;;;;;;5079709;28;20120;-85
2022/07/14 12:45:02;;;;;;;4.38;1.10;;;22.70;95.10;;;;;;5084107;28;20123;-86
2022/07/14 12:47:28;;;;;;;9.35;1.20;;;22.80;94.40;;;;;;5085675;28;20495;-86
2022/07/14 12:49:54;;;;;;;6.03;1.10;;;22.70;93.50;;;;;;5089844;28;20501;-85
2022/07/14 12:52:20;;;;;;;4.47;0.90;;;22.70;93.90;;;;;;5091502;28;20568;-85
2022/07/14 12:54:45;;;;;;;5.82;1.00;;;22.70;93.40;;;;;;5090793;28;20062;-85
2022/07/14 12:57:22;;;;;;;4.97;1.05;;;22.80;94.00;;;;;;5072923;28;20036;-85